National Weather Service United States Department of Commerce
Click Here for Latest Airport Weather Warnings
 
Latest Huntsville TAF


000
FTUS44 KHUN 280520
TAFHSV
TAF
KHSV 280520Z 2806/2906 02006KT P6SM BKN250
FM281300 05008KT P6SM BKN180=

Latest Muscle Shoals TAF


000
FTUS44 KHUN 280520
TAFMSL
TAF
KMSL 280520Z 2806/2906 02006KT P6SM BKN250
FM281300 05006KT P6SM BKN180=


Back to Main Huntsville Weather Forecast Office Page